Time;durP1;ratioP1;P1;durP2;ratioP2;P2;SDS_P1;SDS_P2;PMS_P1;PMS_P2;Temp;Humidity;BMP_temperature;BMP_pressure;BME280_temperature;BME280_humidity;BME280_pressure;Samples;Min_cycle;Max_cycle;Signal;HPM_P1;HPM_P2
2023/09/26 00:02:19;;;;;;;;;;;19.30;99.90;;;;;;4997706;28;19987;-62
2023/09/26 00:04:47;;;;;;;;;;;19.30;99.90;;;;;;4997559;28;19990;-62
2023/09/26 00:07:12;;;;;;;;;;;19.30;99.90;;;;;;4997534;28;20428;-63
2023/09/26 00:09:38;;;;;;;;;;;19.20;99.90;;;;;;4997464;28;20102;-62
2023/09/26 00:12:05;;;;;;;;;;;19.10;99.90;;;;;;4997470;28;20082;-62
2023/09/26 00:14:30;;;;;;;;;;;19.10;99.90;;;;;;4997343;28;20025;-62
2023/09/26 00:16:56;;;;;;;;;;;19.00;99.90;;;;;;4997417;28;19990;-64
2023/09/26 00:19:21;;;;;;;;;;;19.00;99.90;;;;;;4997219;28;20453;-63
2023/09/26 00:21:47;;;;;;;;;;;19.10;99.90;;;;;;4997190;28;20073;-62
2023/09/26 00:24:13;;;;;;;;;;;19.10;99.90;;;;;;4997325;28;20034;-63
2023/09/26 00:26:38;;;;;;;;;;;19.20;99.90;;;;;;4997435;28;19987;-63
2023/09/26 00:29:05;;;;;;;;;;;19.30;99.90;;;;;;4996911;28;19983;-62
2023/09/26 00:31:30;;;;;;;;;;;19.30;99.90;;;;;;4997182;28;20033;-62
2023/09/26 00:33:56;;;;;;;;;;;19.30;99.90;;;;;;4997323;28;20392;-63
2023/09/26 00:36:21;;;;;;;;;;;19.40;99.90;;;;;;4996945;28;20487;-63
2023/09/26 00:38:47;;;;;;;;;;;19.40;99.90;;;;;;4997004;28;20491;-63
2023/09/26 00:41:12;;;;;;;;;;;19.40;99.90;;;;;;4996912;28;20003;-63
2023/09/26 00:43:38;;;;;;;;;;;19.30;99.90;;;;;;4996605;28;20030;-63
2023/09/26 00:46:05;;;;;;;;;;;19.30;99.90;;;;;;4996965;28;19986;-63
2023/09/26 00:48:31;;;;;;;;;;;19.30;99.90;;;;;;4995531;28;19986;-63
2023/09/26 00:50:57;;;;;;;;;;;19.20;99.90;;;;;;4996723;28;20440;-62
2023/09/26 00:53:24;;;;;;;;;;;19.20;99.90;;;;;;4996743;28;20033;-63
2023/09/26 00:55:51;;;;;;;;;;;19.20;99.90;;;;;;4996970;28;19993;-63
2023/09/26 00:58:18;;;;;;;;;;;19.30;99.90;;;;;;4996385;28;19987;-62
2023/09/26 01:00:44;;;;;;;;;;;19.30;99.90;;;;;;4996675;28;20003;-62
2023/09/26 01:03:10;;;;;;;;;;;19.30;99.90;;;;;;4996570;28;19989;-62
2023/09/26 01:05:36;;;;;;;;;;;19.30;99.90;;;;;;4996468;28;20525;-64
2023/09/26 01:08:02;;;;;;;;;;;19.30;99.90;;;;;;4996443;28;20006;-62
2023/09/26 01:10:28;;;;;;;;;;;19.40;99.90;;;;;;4996292;28;20019;-63
2023/09/26 01:12:53;;;;;;;;;;;19.30;99.90;;;;;;4996164;28;20458;-63
2023/09/26 01:15:32;;;;;;;;;;;19.30;99.90;;;;;;4996200;28;20033;-63
2023/09/26 01:17:58;;;;;;;;;;;19.40;99.90;;;;;;4996279;28;19983;-63
2023/09/26 01:20:24;;;;;;;;;;;19.40;99.90;;;;;;4996039;28;20010;-63
2023/09/26 01:22:50;;;;;;;;;;;19.40;99.90;;;;;;4996359;28;20033;-63
2023/09/26 01:25:16;;;;;;;;;;;19.40;99.90;;;;;;4996060;28;20539;-62
2023/09/26 01:27:42;;;;;;;;;;;19.40;99.90;;;;;;4996060;28;19991;-63
2023/09/26 01:30:08;;;;;;;;;;;19.40;99.90;;;;;;4996189;28;19986;-62
2023/09/26 01:32:34;;;;;;;;;;;19.40;99.90;;;;;;4996036;28;19989;-63
2023/09/26 01:34:59;;;;;;;;;;;19.40;99.90;;;;;;4996152;28;19987;-62
2023/09/26 01:37:25;;;;;;;;;;;19.40;99.90;;;;;;4995882;28;20006;-63
2023/09/26 01:39:50;;;;;;;;;;;19.40;99.90;;;;;;4995871;28;20010;-63
2023/09/26 01:42:16;;;;;;;;;;;19.40;99.90;;;;;;4995631;28;20037;-62
2023/09/26 01:44:41;;;;;;;;;;;19.40;99.90;;;;;;4978162;28;20001;-63
2023/09/26 01:47:12;;;;;;;;;;;19.40;99.90;;;;;;4995824;28;20033;-63
2023/09/26 01:49:38;;;;;;;;;;;19.40;99.90;;;;;;4995701;28;20392;-63
2023/09/26 01:52:04;;;;;;;;;;;19.40;99.90;;;;;;4995623;28;20033;-63
2023/09/26 01:54:29;;;;;;;;;;;19.40;99.90;;;;;;4995491;28;20465;-63
2023/09/26 01:56:55;;;;;;;;;;;19.30;99.90;;;;;;4995611;28;20425;-63
2023/09/26 01:59:20;;;;;;;;;;;19.40;99.90;;;;;;4995115;28;20350;-63
2023/09/26 02:01:46;;;;;;;;;;;19.40;99.90;;;;;;4995417;28;20350;-63
2023/09/26 02:04:11;;;;;;;;;;;19.40;99.90;;;;;;4995407;28;20388;-64
2023/09/26 02:06:37;;;;;;;;;;;19.40;99.90;;;;;;4995732;28;20392;-63
2023/09/26 02:09:03;;;;;;;;;;;19.30;99.90;;;;;;4994832;28;20010;-62
2023/09/26 02:11:29;;;;;;;;;;;19.30;99.90;;;;;;4995357;28;20074;-63
2023/09/26 02:13:55;;;;;;;;;;;19.30;99.90;;;;;;4995216;28;20029;-63
2023/09/26 02:16:21;;;;;;;;;;;19.30;99.90;;;;;;4995087;28;20030;-63
2023/09/26 02:18:47;;;;;;;;;;;19.30;99.90;;;;;;4995643;28;19991;-62
2023/09/26 02:21:15;;;;;;;;;;;19.40;99.90;;;;;;4994878;28;20033;-63
2023/09/26 02:23:41;;;;;;;;;;;19.40;99.90;;;;;;4994778;28;20401;-62
2023/09/26 02:26:07;;;;;;;;;;;19.30;99.90;;;;;;4995175;28;19996;-62
2023/09/26 02:28:32;;;;;;;;;;;19.30;99.90;;;;;;4995003;28;20368;-63
2023/09/26 02:30:58;;;;;;;;;;;19.30;99.90;;;;;;4994897;28;19982;-63
2023/09/26 02:33:23;;;;;;;;;;;19.30;99.90;;;;;;4994936;28;19983;-63
2023/09/26 02:35:49;;;;;;;;;;;19.30;99.90;;;;;;4994974;28;20014;-63
2023/09/26 02:38:14;;;;;;;;;;;19.30;99.90;;;;;;4994682;28;19990;-63
2023/09/26 02:40:40;;;;;;;;;;;19.30;99.90;;;;;;4995243;28;20052;-63
2023/09/26 02:43:07;;;;;;;;;;;19.40;99.90;;;;;;4994782;28;20452;-63
2023/09/26 02:45:33;;;;;;;;;;;19.40;99.90;;;;;;4994737;28;19990;-63
2023/09/26 02:47:59;;;;;;;;;;;19.40;99.90;;;;;;4994560;28;19983;-63
2023/09/26 02:50:24;;;;;;;;;;;19.40;99.90;;;;;;4994741;28;19983;-63
2023/09/26 02:52:50;;;;;;;;;;;19.40;99.90;;;;;;4994615;28;19986;-63
2023/09/26 02:55:15;;;;;;;;;;;19.40;99.90;;;;;;4994519;28;20441;-63
2023/09/26 02:57:41;;;;;;;;;;;19.40;99.90;;;;;;4994589;28;19986;-63
2023/09/26 03:00:16;;;;;;;;;;;19.40;99.90;;;;;;4994411;28;20006;-63
2023/09/26 03:02:43;;;;;;;;;;;19.40;99.90;;;;;;4994367;28;19987;-62
2023/09/26 03:05:09;;;;;;;;;;;19.30;99.90;;;;;;4994417;28;20082;-63
2023/09/26 03:07:35;;;;;;;;;;;19.30;99.90;;;;;;4994178;28;19990;-63
2023/09/26 03:10:01;;;;;;;;;;;19.30;99.90;;;;;;4994150;28;20420;-63
2023/09/26 03:12:26;;;;;;;;;;;19.30;99.90;;;;;;4993698;28;20456;-63
2023/09/26 03:14:52;;;;;;;;;;;19.30;99.90;;;;;;4994340;28;20021;-63
2023/09/26 03:17:17;;;;;;;;;;;19.30;99.90;;;;;;4994048;28;19987;-63
2023/09/26 03:19:44;;;;;;;;;;;19.30;99.90;;;;;;4994123;28;20105;-63
2023/09/26 03:22:10;;;;;;;;;;;19.30;99.90;;;;;;4994071;28;19987;-63
2023/09/26 03:24:35;;;;;;;;;;;19.40;99.90;;;;;;4994189;28;19990;-63
2023/09/26 03:27:01;;;;;;;;;;;19.40;99.90;;;;;;4994338;28;19990;-62
2023/09/26 03:29:26;;;;;;;;;;;19.40;99.90;;;;;;4994281;28;19987;-63
2023/09/26 03:31:52;;;;;;;;;;;19.40;99.90;;;;;;4994178;28;19983;-63
2023/09/26 03:34:17;;;;;;;;;;;19.30;99.90;;;;;;4994036;28;20049;-63
2023/09/26 03:36:43;;;;;;;;;;;19.30;99.90;;;;;;4993824;28;20475;-63
2023/09/26 03:39:09;;;;;;;;;;;19.30;99.90;;;;;;4994111;28;19983;-63
2023/09/26 03:41:34;;;;;;;;;;;19.40;99.90;;;;;;4993894;28;20003;-62
2023/09/26 03:44:00;;;;;;;;;;;19.30;99.90;;;;;;4993999;28;20082;-63
2023/09/26 03:46:26;;;;;;;;;;;19.30;99.90;;;;;;4994052;28;19982;-63
2023/09/26 03:48:52;;;;;;;;;;;19.30;99.90;;;;;;4993869;28;19998;-63
2023/09/26 03:51:17;;;;;;;;;;;19.30;99.90;;;;;;4994020;28;19987;-63
2023/09/26 03:53:43;;;;;;;;;;;19.40;99.90;;;;;;4993925;28;20441;-62
2023/09/26 03:56:09;;;;;;;;;;;19.30;99.90;;;;;;4993894;28;20069;-63
2023/09/26 03:58:35;;;;;;;;;;;19.30;99.90;;;;;;4993886;28;19991;-62
2023/09/26 04:01:14;;;;;;;;;;;19.30;99.90;;;;;;4993940;28;20009;-62
2023/09/26 04:03:40;;;;;;;;;;;19.40;99.90;;;;;;4993806;28;19994;-63
2023/09/26 04:06:07;;;;;;;;;;;19.30;99.90;;;;;;4976276;28;20346;-63
2023/09/26 04:08:33;;;;;;;;;;;19.30;99.90;;;;;;4993841;28;19989;-62
2023/09/26 04:10:58;;;;;;;;;;;19.30;99.90;;;;;;4994282;28;20098;-64
2023/09/26 04:13:24;;;;;;;;;;;19.30;99.90;;;;;;4993881;28;19987;-63
2023/09/26 04:15:50;;;;;;;;;;;19.30;99.90;;;;;;4993706;28;19983;-62
2023/09/26 04:18:16;;;;;;;;;;;19.30;99.90;;;;;;4993668;28;19993;-63
2023/09/26 04:20:43;;;;;;;;;;;19.30;99.90;;;;;;4993395;28;20010;-63
2023/09/26 04:23:08;;;;;;;;;;;19.30;99.90;;;;;;4994995;28;19987;-63
2023/09/26 04:25:34;;;;;;;;;;;19.30;99.90;;;;;;4997358;28;19990;-64
2023/09/26 04:28:00;;;;;;;;;;;19.30;99.90;;;;;;4997212;28;19983;-63
2023/09/26 04:30:25;;;;;;;;;;;19.20;99.90;;;;;;4997207;28;19983;-63
2023/09/26 04:32:51;;;;;;;;;;;19.10;99.90;;;;;;4997090;28;19987;-63
2023/09/26 04:35:17;;;;;;;;;;;19.10;99.90;;;;;;4997151;28;19994;-64
2023/09/26 04:37:42;;;;;;;;;;;19.10;99.90;;;;;;4997162;28;19983;-62
2023/09/26 04:40:11;;;;;;;;;;;19.10;99.90;;;;;;4996973;28;20345;-63
2023/09/26 04:42:41;;;;;;;;;;;19.10;99.90;;;;;;4997176;28;20002;-62
2023/09/26 04:45:06;;;;;;;;;;;19.20;99.90;;;;;;4997144;28;19986;-63
2023/09/26 04:47:32;;;;;;;;;;;19.20;99.90;;;;;;4996816;28;20353;-63
2023/09/26 04:49:58;;;;;;;;;;;19.20;99.90;;;;;;4996573;28;19982;-62
2023/09/26 04:52:24;;;;;;;;;;;19.20;99.90;;;;;;4996784;28;19982;-63
2023/09/26 04:54:53;;;;;;;;;;;19.20;99.90;;;;;;4996767;28;19987;-63
2023/09/26 04:57:18;;;;;;;;;;;19.10;99.90;;;;;;4996562;28;19990;-63
2023/09/26 04:59:44;;;;;;;;;;;19.10;99.90;;;;;;4996535;28;19986;-62
2023/09/26 05:02:09;;;;;;;;;;;19.10;99.90;;;;;;4996554;28;19994;-63
2023/09/26 05:04:35;;;;;;;;;;;19.20;99.90;;;;;;4996248;28;20440;-63
2023/09/26 05:07:00;;;;;;;;;;;19.20;99.90;;;;;;4996772;28;19986;-63
2023/09/26 05:09:26;;;;;;;;;;;19.10;99.90;;;;;;4996373;28;20491;-62
2023/09/26 05:11:51;;;;;;;;;;;19.00;99.90;;;;;;4996067;28;20353;-63
2023/09/26 05:14:17;;;;;;;;;;;19.00;99.90;;;;;;4996122;28;20045;-62
2023/09/26 05:16:43;;;;;;;;;;;19.00;99.90;;;;;;4996100;28;19982;-63
2023/09/26 05:19:08;;;;;;;;;;;19.00;99.90;;;;;;4995411;28;19990;-63
2023/09/26 05:21:34;;;;;;;;;;;19.10;99.90;;;;;;4995899;28;20007;-64
2023/09/26 05:23:59;;;;;;;;;;;19.10;99.90;;;;;;4996124;28;19990;-63
2023/09/26 05:26:25;;;;;;;;;;;19.20;99.90;;;;;;4996360;28;19987;-63
2023/09/26 05:28:50;;;;;;;;;;;19.20;99.90;;;;;;4995978;28;20441;-64
2023/09/26 05:31:17;;;;;;;;;;;19.30;99.90;;;;;;4995965;28;20041;-63
2023/09/26 05:33:43;;;;;;;;;;;19.30;99.90;;;;;;4995880;28;20005;-63
2023/09/26 05:36:09;;;;;;;;;;;19.40;99.90;;;;;;4995101;28;19982;-63
2023/09/26 05:38:34;;;;;;;;;;;19.40;99.90;;;;;;4995804;28;20022;-65
2023/09/26 05:41:00;;;;;;;;;;;19.40;99.90;;;;;;4975795;28;20450;-62
2023/09/26 05:43:26;;;;;;;;;;;19.40;99.90;;;;;;4976789;28;20434;-63
2023/09/26 05:45:52;;;;;;;;;;;19.40;99.90;;;;;;4976450;28;20027;-63
2023/09/26 05:48:21;;;;;;;;;;;19.50;99.90;;;;;;4983137;28;20429;-64
2023/09/26 05:50:46;;;;;;;;;;;19.50;99.90;;;;;;4995657;28;20564;-63
2023/09/26 05:53:12;;;;;;;;;;;19.50;99.90;;;;;;4994588;28;20029;-64
2023/09/26 05:55:38;;;;;;;;;;;19.50;99.90;;;;;;4994755;28;20472;-63
2023/09/26 05:58:03;;;;;;;;;;;19.60;99.90;;;;;;4993601;28;19987;-63
2023/09/26 06:00:29;;;;;;;;;;;19.50;99.90;;;;;;4992867;28;20010;-62
2023/09/26 06:02:55;;;;;;;;;;;19.60;99.90;;;;;;4997511;28;20034;-65
2023/09/26 06:05:20;;;;;;;;;;;19.70;99.90;;;;;;4984112;28;20397;-62
2023/09/26 06:07:46;;;;;;;;;;;19.70;99.90;;;;;;4989018;28;20022;-64
2023/09/26 06:10:11;;;;;;;;;;;19.70;99.90;;;;;;4991429;28;20018;-61
2023/09/26 06:12:40;;;;;;;;;;;19.70;99.90;;;;;;4999692;28;20084;-62
2023/09/26 06:15:06;;;;;;;;;;;19.80;99.90;;;;;;4990844;28;20029;-63
2023/09/26 06:17:32;;;;;;;;;;;19.90;99.90;;;;;;4998362;28;20042;-61
2023/09/26 06:19:58;;;;;;;;;;;19.80;99.90;;;;;;5012129;28;20417;-65
2023/09/26 06:22:23;;;;;;;;;;;19.90;99.90;;;;;;5013221;28;20526;-63
2023/09/26 06:24:51;;;;;;;;;;;19.90;99.90;;;;;;4992792;28;21404;-67
2023/09/26 06:27:16;;;;;;;;;;;19.90;99.90;;;;;;4992705;28;20077;-63
2023/09/26 06:29:42;;;;;;;;;;;20.10;99.90;;;;;;4991207;28;19991;-62
2023/09/26 06:32:08;;;;;;;;;;;20.20;99.90;;;;;;4990021;28;20476;-62
2023/09/26 06:34:35;;;;;;;;;;;20.30;99.90;;;;;;4992422;28;19986;-64
2023/09/26 06:37:02;;;;;;;;;;;20.30;99.90;;;;;;4979239;28;20409;-64
2023/09/26 06:39:28;;;;;;;;;;;20.40;99.90;;;;;;4991898;28;19987;-64
2023/09/26 06:41:53;;;;;;;;;;;20.50;99.90;;;;;;4998000;28;20011;-63
2023/09/26 06:44:19;;;;;;;;;;;20.80;99.90;;;;;;5009655;28;20133;-64
2023/09/26 06:46:44;;;;;;;;;;;21.10;99.90;;;;;;4989766;28;20037;-61
2023/09/26 06:49:13;;;;;;;;;;;21.30;99.90;;;;;;4995346;28;20095;-62
2023/09/26 06:51:38;;;;;;;;;;;21.80;99.90;;;;;;4980829;28;20481;-63
2023/09/26 06:54:04;;;;;;;;;;;23.00;99.90;;;;;;4976586;28;20041;-64
2023/09/26 06:56:29;;;;;;;;;;;23.30;99.90;;;;;;4972951;28;19988;-63
2023/09/26 06:58:55;;;;;;;;;;;23.20;99.90;;;;;;4983491;28;20368;-63
2023/09/26 07:01:20;;;;;;;;;;;23.20;99.90;;;;;;4991514;28;20034;-64
2023/09/26 07:03:46;;;;;;;;;;;23.80;99.90;;;;;;4988772;28;20401;-62
2023/09/26 07:06:13;;;;;;;;;;;24.10;99.90;;;;;;4967514;28;20034;-60
2023/09/26 07:08:40;;;;;;;;;;;25.80;99.90;;;;;;4950554;28;20385;-62
2023/09/26 07:11:06;;;;;;;;;;;26.10;96.40;;;;;;4988513;28;20018;-64
2023/09/26 07:13:35;;;;;;;;;;;26.90;92.40;;;;;;4988656;28;20464;-62
2023/09/26 07:16:03;;;;;;;;;;;28.20;87.10;;;;;;4994015;28;19987;-63
2023/09/26 07:18:31;;;;;;;;;;;28.60;79.30;;;;;;4993622;28;19983;-61
2023/09/26 07:21:04;;;;;;;;;;;29.70;76.00;;;;;;4992585;28;20548;-62
2023/09/26 07:23:29;;;;;;;;;;;30.80;68.70;;;;;;4987594;28;20089;-65
2023/09/26 07:26:04;;;;;;;;;;;31.70;64.20;;;;;;4989266;28;20528;-63
2023/09/26 07:28:31;;;;;;;;;;;32.10;60.00;;;;;;4985281;28;20089;-64
2023/09/26 07:30:56;;;;;;;;;;;31.10;59.40;;;;;;4990457;28;19995;-63
2023/09/26 07:33:26;;;;;;;;;;;29.80;61.30;;;;;;4984313;28;20338;-67
2023/09/26 07:35:52;;;;;;;;;;;28.80;64.80;;;;;;4988348;28;19991;-64
2023/09/26 07:38:26;;;;;;;;;;;28.20;71.40;;;;;;4985794;28;19990;-63
2023/09/26 07:40:52;;;;;;;;;;;28.80;69.30;;;;;;4986777;28;20100;-62
2023/09/26 07:43:18;;;;;;;;;;;28.60;69.30;;;;;;4987563;28;19987;-62
2023/09/26 07:45:44;;;;;;;;;;;27.90;70.90;;;;;;4989806;28;19994;-62
2023/09/26 07:48:09;;;;;;;;;;;27.00;73.50;;;;;;4984041;28;20010;-61
2023/09/26 07:50:35;;;;;;;;;;;26.40;80.50;;;;;;4983468;28;20089;-63
2023/09/26 07:53:07;;;;;;;;;;;25.80;85.50;;;;;;4979077;28;20030;-64
2023/09/26 07:55:32;;;;;;;;;;;25.40;88.60;;;;;;4980289;28;20133;-62
2023/09/26 07:57:58;;;;;;;;;;;25.10;91.70;;;;;;4988782;28;20456;-62
2023/09/26 08:00:39;;;;;;;;;;;25.00;92.60;;;;;;4991998;28;20007;-66
2023/09/26 08:03:05;;;;;;;;;;;25.10;93.40;;;;;;4993917;28;19994;-61
2023/09/26 08:05:43;;;;;;;;;;;25.20;92.30;;;;;;4991567;28;19986;-62
2023/09/26 08:08:09;;;;;;;;;;;25.40;92.60;;;;;;4991934;28;19986;-67
2023/09/26 08:10:44;;;;;;;;;;;25.50;91.20;;;;;;4978368;28;20065;-63
2023/09/26 08:13:10;;;;;;;;;;;25.60;91.00;;;;;;4982303;28;19987;-65
2023/09/26 08:15:36;;;;;;;;;;;25.80;90.70;;;;;;4996261;28;19993;-64
2023/09/26 08:18:02;;;;;;;;;;;25.50;90.80;;;;;;4994438;28;20008;-63
2023/09/26 08:20:27;;;;;;;;;;;25.30;92.50;;;;;;4992041;28;20066;-63
2023/09/26 08:22:53;;;;;;;;;;;25.30;91.10;;;;;;4990360;28;20073;-62
2023/09/26 08:25:19;;;;;;;;;;;25.20;91.50;;;;;;4977533;28;20475;-63
2023/09/26 08:27:44;;;;;;;;;;;25.10;92.60;;;;;;4996367;28;20073;-58
2023/09/26 08:30:13;;;;;;;;;;;25.50;93.30;;;;;;4993986;28;20035;-63
2023/09/26 08:32:40;;;;;;;;;;;25.70;90.80;;;;;;4992625;28;20001;-64
2023/09/26 08:35:06;;;;;;;;;;;25.70;89.70;;;;;;4974790;28;20356;-63
2023/09/26 08:37:35;;;;;;;;;;;25.90;90.80;;;;;;4985750;28;19983;-62
2023/09/26 08:40:04;;;;;;;;;;;25.90;88.10;;;;;;4988382;28;20010;-62
2023/09/26 08:42:30;;;;;;;;;;;25.70;89.90;;;;;;4964079;28;20291;-61
2023/09/26 08:44:55;;;;;;;;;;;26.10;88.00;;;;;;4977653;28;19991;-63
2023/09/26 08:47:25;;;;;;;;;;;26.70;81.60;;;;;;4985399;28;19990;-65
2023/09/26 08:49:52;;;;;;;;;;;26.60;81.50;;;;;;4981592;28;20508;-63
2023/09/26 08:52:18;;;;;;;;;;;26.50;81.90;;;;;;4991159;28;19995;-63
2023/09/26 08:54:43;;;;;;;;;;;26.80;83.90;;;;;;4990407;28;19994;-63
2023/09/26 08:57:09;;;;;;;;;;;27.40;79.00;;;;;;4989048;28;19986;-64
2023/09/26 08:59:35;;;;;;;;;;;27.30;77.60;;;;;;4972258;28;20050;-63
2023/09/26 09:02:01;;;;;;;;;;;27.50;77.20;;;;;;4982076;28;20468;-62
2023/09/26 09:04:27;;;;;;;;;;;27.80;77.00;;;;;;4990826;28;20045;-61
2023/09/26 09:07:03;;;;;;;;;;;27.90;72.20;;;;;;4993178;28;19982;-65
2023/09/26 09:09:30;;;;;;;;;;;27.80;74.80;;;;;;4990649;28;20016;-67
2023/09/26 09:11:57;;;;;;;;;;;28.20;73.80;;;;;;4971392;28;20002;-65
2023/09/26 09:14:33;;;;;;;;;;;28.60;73.00;;;;;;4965792;28;20026;-62
2023/09/26 09:16:59;;;;;;;;;;;28.90;70.10;;;;;;4980622;28;19993;-64
2023/09/26 09:19:43;;;;;;;;;;;29.10;69.40;;;;;;4976160;28;20069;-60
2023/09/26 09:22:20;;;;;;;;;;;29.50;67.20;;;;;;4979253;28;20446;-63
2023/09/26 09:24:56;;;;;;;;;;;29.80;68.00;;;;;;4962296;28;19990;-63
2023/09/26 09:27:34;;;;;;;;;;;30.00;62.60;;;;;;4994397;28;19987;-63
2023/09/26 09:30:04;;;;;;;;;;;30.20;62.70;;;;;;4978793;28;19997;-64
2023/09/26 09:32:30;;;;;;;;;;;30.40;64.70;;;;;;4994129;28;20082;-62
2023/09/26 09:34:56;;;;;;;;;;;30.60;61.60;;;;;;5003798;28;20084;-63
2023/09/26 09:37:22;;;;;;;;;;;30.80;60.50;;;;;;4995861;28;20398;-63
2023/09/26 09:39:48;;;;;;;;;;;31.00;61.00;;;;;;5010899;28;20029;-66
2023/09/26 09:42:13;;;;;;;;;;;31.10;58.80;;;;;;4995802;28;20025;-66
2023/09/26 09:44:39;;;;;;;;;;;31.30;59.30;;;;;;5002561;28;20081;-64
2023/09/26 09:47:05;;;;;;;;;;;31.20;56.90;;;;;;4995050;28;20102;-63
2023/09/26 09:49:32;;;;;;;;;;;31.10;59.20;;;;;;4995632;28;19986;-64
2023/09/26 09:52:00;;;;;;;;;;;31.10;56.70;;;;;;4996717;28;19995;-65
2023/09/26 09:54:28;;;;;;;;;;;31.00;57.50;;;;;;4993596;28;19987;-67
2023/09/26 09:56:54;;;;;;;;;;;30.90;58.10;;;;;;4991334;28;20089;-63
2023/09/26 09:59:22;;;;;;;;;;;31.10;57.00;;;;;;4989340;28;20030;-65
2023/09/26 10:01:50;;;;;;;;;;;31.30;56.70;;;;;;4998667;28;20465;-64
2023/09/26 10:04:16;;;;;;;;;;;31.30;57.60;;;;;;5003648;28;19993;-64
2023/09/26 10:06:42;;;;;;;;;;;31.30;54.60;;;;;;5005138;28;19990;-63
2023/09/26 10:09:09;;;;;;;;;;;31.30;53.70;;;;;;4989725;28;20061;-60
2023/09/26 10:11:35;;;;;;;;;;;31.30;49.30;;;;;;4982637;28;19987;-63
2023/09/26 10:14:03;;;;;;;;;;;31.20;53.20;;;;;;5012304;28;20037;-63
2023/09/26 10:16:29;;;;;;;;;;;31.40;50.30;;;;;;4993169;28;19987;-62
2023/09/26 10:18:59;;;;;;;;;;;31.60;52.30;;;;;;4993633;28;20020;-63
2023/09/26 10:21:25;;;;;;;;;;;31.90;50.50;;;;;;4992633;28;20374;-64
2023/09/26 10:24:09;;;;;;;;;;;32.20;49.10;;;;;;4993341;28;20344;-64
2023/09/26 10:26:39;;;;;;;;;;;32.20;48.60;;;;;;4973548;28;20014;-67
2023/09/26 10:29:25;;;;;;;;;;;32.20;46.30;;;;;;4972763;28;19984;-67
2023/09/26 10:31:55;;;;;;;;;;;32.10;47.40;;;;;;4970869;28;20472;-65
2023/09/26 10:34:24;;;;;;;;;;;32.20;48.20;;;;;;4979182;28;20029;-68
2023/09/26 10:36:49;;;;;;;;;;;32.40;45.70;;;;;;4991813;28;20422;-64
2023/09/26 10:39:15;;;;;;;;;;;32.50;49.40;;;;;;4990881;28;20081;-64
2023/09/26 10:41:41;;;;;;;;;;;32.80;50.20;;;;;;4990523;28;20007;-64
2023/09/26 10:44:06;;;;;;;;;;;33.00;47.00;;;;;;4992433;28;20002;-65
2023/09/26 10:46:32;;;;;;;;;;;33.20;43.10;;;;;;4991973;28;20081;-65
2023/09/26 10:48:58;;;;;;;;;;;33.40;41.70;;;;;;4990531;28;19987;-64
2023/09/26 10:51:23;;;;;;;;;;;33.30;39.60;;;;;;4979568;28;20019;-66
2023/09/26 10:53:49;;;;;;;;;;;33.30;40.00;;;;;;4983820;28;19987;-64
2023/09/26 10:56:15;;;;;;;;;;;33.50;39.50;;;;;;5347776;23;20145;-65
2023/09/26 10:58:41;;;;;;;;;;;33.60;39.10;;;;;;4993566;28;20085;-65
2023/09/26 11:01:08;;;;;;;;;;;33.70;37.70;;;;;;4976192;28;20486;-66
2023/09/26 11:03:34;;;;;;;;;;;33.70;37.40;;;;;;4990602;28;19983;-64
2023/09/26 11:06:01;;;;;;;;;;;33.40;36.40;;;;;;4991822;28;20101;-64
2023/09/26 11:08:27;;;;;;;;;;;33.40;35.60;;;;;;4972336;28;20364;-63
2023/09/26 11:10:52;;;;;;;;;;;33.30;37.00;;;;;;4989733;28;20046;-65
2023/09/26 11:13:18;;;;;;;;;;;33.50;38.00;;;;;;4990584;28;20018;-63
2023/09/26 11:15:46;;;;;;;;;;;33.80;36.60;;;;;;4990769;28;20026;-65
2023/09/26 11:18:12;;;;;;;;;;;33.80;34.80;;;;;;4990708;28;20368;-65
2023/09/26 11:20:39;;;;;;;;;;;33.80;36.70;;;;;;4990924;28;20384;-65
2023/09/26 11:23:04;;;;;;;;;;;33.70;35.10;;;;;;4991834;28;19986;-63
2023/09/26 11:25:31;;;;;;;;;;;33.60;35.90;;;;;;4990259;28;19990;-64
2023/09/26 11:27:56;;;;;;;;;;;33.70;36.10;;;;;;4991414;28;20404;-64
2023/09/26 11:30:22;;;;;;;;;;;33.80;35.70;;;;;;4992946;28;19983;-64
2023/09/26 11:32:50;;;;;;;;;;;33.90;36.80;;;;;;4992533;28;20082;-63
2023/09/26 11:35:16;;;;;;;;;;;34.10;34.30;;;;;;4996494;28;20033;-63
2023/09/26 11:37:42;;;;;;;;;;;34.20;36.80;;;;;;4996519;28;19983;-62
2023/09/26 11:40:11;;;;;;;;;;;33.80;34.10;;;;;;4996691;28;20006;-66
2023/09/26 11:42:40;;;;;;;;;;;33.60;37.20;;;;;;4997508;28;20445;-65
2023/09/26 11:45:06;;;;;;;;;;;34.00;37.90;;;;;;4979744;28;20439;-65
2023/09/26 11:47:31;;;;;;;;;;;34.30;36.10;;;;;;4997046;28;20078;-65
2023/09/26 11:49:57;;;;;;;;;;;34.20;35.40;;;;;;4997935;28;20074;-63
2023/09/26 11:52:22;;;;;;;;;;;34.20;33.30;;;;;;4997829;28;19983;-65
2023/09/26 11:54:50;;;;;;;;;;;33.80;33.10;;;;;;4996984;28;20479;-66
2023/09/26 11:57:16;;;;;;;;;;;33.80;34.20;;;;;;4997589;28;20018;-64
2023/09/26 11:59:42;;;;;;;;;;;33.90;35.10;;;;;;4997218;28;19991;-65
2023/09/26 12:02:08;;;;;;;;;;;33.90;32.40;;;;;;4997467;28;20011;-64
2023/09/26 12:04:34;;;;;;;;;;;33.70;33.20;;;;;;4996781;28;19994;-65
2023/09/26 12:07:00;;;;;;;;;;;33.10;33.80;;;;;;4997105;28;19990;-65
2023/09/26 12:09:28;;;;;;;;;;;32.80;33.70;;;;;;4995784;28;20026;-63
2023/09/26 12:11:54;;;;;;;;;;;32.80;35.50;;;;;;4995851;28;20451;-64
2023/09/26 12:14:20;;;;;;;;;;;32.80;34.30;;;;;;4995743;28;20049;-65
2023/09/26 12:16:51;;;;;;;;;;;33.00;33.30;;;;;;4996372;28;20452;-64
2023/09/26 12:19:20;;;;;;;;;;;32.40;33.60;;;;;;4995817;28;20026;-63
2023/09/26 12:21:46;;;;;;;;;;;32.00;33.00;;;;;;4995575;28;20003;-64
2023/09/26 12:24:13;;;;;;;;;;;32.00;31.70;;;;;;4995207;28;20082;-64
2023/09/26 12:26:41;;;;;;;;;;;32.00;35.40;;;;;;4996505;28;19987;-64
2023/09/26 12:29:06;;;;;;;;;;;32.60;34.80;;;;;;4996059;28;20384;-64
2023/09/26 12:31:32;;;;;;;;;;;33.00;33.70;;;;;;4995267;28;20081;-65
2023/09/26 12:33:57;;;;;;;;;;;33.20;32.60;;;;;;4995591;28;20712;-64
2023/09/26 12:36:23;;;;;;;;;;;33.30;32.70;;;;;;4995977;28;19989;-63
2023/09/26 12:38:49;;;;;;;;;;;33.40;33.10;;;;;;4994274;28;19990;-63
2023/09/26 12:41:14;;;;;;;;;;;33.50;30.90;;;;;;4994280;28;20469;-65
2023/09/26 12:43:41;;;;;;;;;;;33.00;32.90;;;;;;4977436;28;19991;-64
2023/09/26 12:46:06;;;;;;;;;;;33.10;33.20;;;;;;4996196;28;20077;-63
2023/09/26 12:48:32;;;;;;;;;;;32.90;32.20;;;;;;4996118;28;20018;-63
2023/09/26 12:50:57;;;;;;;;;;;33.10;33.30;;;;;;4996171;28;19983;-65
2023/09/26 12:53:23;;;;;;;;;;;33.20;35.20;;;;;;4995356;28;19982;-63
2023/09/26 12:55:48;;;;;;;;;;;33.50;32.20;;;;;;4996670;28;20061;-65
2023/09/26 12:58:14;;;;;;;;;;;33.50;34.20;;;;;;4996511;28;20390;-63
2023/09/26 13:00:45;;;;;;;;;;;33.50;34.40;;;;;;4996513;28;20050;-66
2023/09/26 13:03:11;;;;;;;;;;;33.70;33.70;;;;;;4996355;28;19998;-63
2023/09/26 13:05:37;;;;;;;;;;;33.70;34.70;;;;;;4996739;28;19982;-65
2023/09/26 13:08:03;;;;;;;;;;;33.60;34.40;;;;;;4996402;28;20095;-63
2023/09/26 13:10:31;;;;;;;;;;;33.50;35.60;;;;;;4996539;28;19982;-66
2023/09/26 13:12:57;;;;;;;;;;;33.60;37.00;;;;;;4996426;28;20010;-63
2023/09/26 13:15:28;;;;;;;;;;;33.40;37.10;;;;;;4995544;28;20456;-63
2023/09/26 13:18:02;;;;;;;;;;;33.50;35.30;;;;;;4996360;28;20388;-65
2023/09/26 13:20:28;;;;;;;;;;;33.40;33.80;;;;;;4985642;28;20031;-65
2023/09/26 13:22:54;;;;;;;;;;;33.20;34.80;;;;;;4996157;28;19983;-65
2023/09/26 13:25:20;;;;;;;;;;;33.20;35.40;;;;;;4996114;28;20037;-66
2023/09/26 13:27:45;;;;;;;;;;;33.10;36.30;;;;;;4996157;28;20437;-62
2023/09/26 13:30:11;;;;;;;;;;;33.10;37.80;;;;;;4996139;28;20408;-64
2023/09/26 13:32:37;;;;;;;;;;;33.10;38.10;;;;;;4996013;28;19983;-64
2023/09/26 13:35:04;;;;;;;;;;;33.20;38.90;;;;;;4996036;28;19987;-63
2023/09/26 13:37:30;;;;;;;;;;;33.20;38.30;;;;;;4995882;28;20168;-64
2023/09/26 13:39:56;;;;;;;;;;;33.30;38.30;;;;;;4995840;28;19983;-64
2023/09/26 13:42:21;;;;;;;;;;;33.50;39.10;;;;;;4995893;28;20025;-64
2023/09/26 13:44:47;;;;;;;;;;;33.50;37.70;;;;;;4995807;28;20021;-63
2023/09/26 13:47:12;;;;;;;;;;;33.60;38.20;;;;;;4995858;28;20397;-65
2023/09/26 13:49:38;;;;;;;;;;;33.50;37.90;;;;;;4995711;28;20000;-65
2023/09/26 13:52:04;;;;;;;;;;;33.40;37.20;;;;;;4995512;28;20077;-63
2023/09/26 13:54:30;;;;;;;;;;;33.50;36.90;;;;;;4995759;28;20034;-65
2023/09/26 13:56:55;;;;;;;;;;;33.50;37.40;;;;;;4994778;28;20400;-65
2023/09/26 13:59:21;;;;;;;;;;;33.60;38.40;;;;;;4995612;28;19990;-63
2023/09/26 14:01:47;;;;;;;;;;;33.80;37.00;;;;;;4995497;28;20060;-64
2023/09/26 14:04:13;;;;;;;;;;;33.80;35.30;;;;;;4995443;28;19983;-65
2023/09/26 14:06:39;;;;;;;;;;;33.80;36.10;;;;;;4995282;28;20439;-64
2023/09/26 14:09:05;;;;;;;;;;;34.00;36.60;;;;;;4995556;28;19983;-64
2023/09/26 14:11:31;;;;;;;;;;;33.60;36.00;;;;;;4995319;28;19983;-63
2023/09/26 14:13:56;;;;;;;;;;;33.70;35.60;;;;;;4995264;28;20368;-65